createdAt,value
2023-04-19T00:01:44.221Z,7.48
2023-04-19T00:04:11.627Z,7.93
2023-04-19T00:06:42.000Z,7.18
2023-04-19T00:09:09.808Z,7.74
2023-04-19T00:11:36.904Z,7.94
2023-04-19T00:14:03.998Z,8.02
2023-04-19T00:16:31.111Z,7.70
2023-04-19T00:18:58.206Z,7.62
2023-04-19T00:21:26.176Z,7.21
2023-04-19T00:23:54.091Z,7.79
2023-04-19T00:26:23.510Z,7.18
2023-04-19T00:28:50.524Z,7.37
2023-04-19T00:31:17.681Z,7.29
2023-04-19T00:33:44.710Z,7.47
2023-04-19T00:36:11.817Z,7.52
2023-04-19T00:38:38.843Z,7.05
2023-04-19T00:41:05.994Z,7.23
2023-04-19T00:43:33.141Z,7.28
2023-04-19T00:46:00.543Z,7.47
2023-04-19T00:48:27.752Z,7.71
2023-04-19T00:50:55.137Z,7.12
2023-04-19T00:53:22.258Z,7.11
2023-04-19T00:55:51.356Z,6.80
2023-04-19T00:58:18.945Z,7.02
2023-04-19T01:00:46.116Z,6.80
2023-04-19T01:03:13.551Z,6.64
2023-04-19T01:05:41.621Z,6.65
2023-04-19T01:08:08.707Z,7.28
2023-04-19T01:10:36.032Z,7.06
2023-04-19T01:13:03.168Z,6.98
2023-04-19T01:15:31.393Z,6.80
2023-04-19T01:17:58.569Z,6.78
2023-04-19T01:20:25.781Z,6.51
2023-04-19T01:22:52.902Z,7.24
2023-04-19T01:25:20.145Z,7.15
2023-04-19T01:27:47.172Z,6.76
2023-04-19T01:30:14.509Z,6.58
2023-04-19T01:32:41.583Z,6.43
2023-04-19T01:35:11.293Z,6.58
2023-04-19T01:37:38.504Z,6.61
2023-04-19T01:40:06.521Z,6.39
2023-04-19T01:42:33.646Z,6.28
2023-04-19T01:45:00.802Z,6.29
2023-04-19T01:47:28.027Z,6.23
2023-04-19T01:49:55.299Z,6.87
2023-04-19T01:52:22.406Z,6.12
2023-04-19T01:54:49.458Z,6.02
2023-04-19T01:57:16.681Z,6.23
2023-04-19T01:59:43.787Z,6.04
2023-04-19T02:02:10.963Z,6.22
2023-04-19T02:04:38.123Z,6.33
2023-04-19T02:07:05.242Z,6.67
2023-04-19T02:09:37.009Z,6.17
2023-04-19T02:12:05.790Z,6.04
2023-04-19T02:14:32.976Z,6.68
2023-04-19T02:17:00.030Z,6.51
2023-04-19T02:19:27.100Z,6.19
2023-04-19T02:21:57.520Z,5.91
2023-04-19T02:24:25.305Z,6.41
2023-04-19T02:26:54.596Z,6.34
2023-04-19T02:29:21.942Z,6.28
2023-04-19T02:31:49.064Z,6.23
2023-04-19T02:34:16.468Z,5.90
2023-04-19T02:36:43.848Z,6.17
2023-04-19T02:39:10.903Z,5.83
2023-04-19T02:41:39.499Z,6.13
2023-04-19T02:44:06.647Z,6.19
2023-04-19T02:46:33.796Z,6.45
2023-04-19T02:49:04.405Z,6.86
2023-04-19T02:51:31.518Z,6.25
2023-04-19T02:53:58.554Z,6.39
2023-04-19T02:56:26.064Z,6.75
2023-04-19T02:58:54.714Z,6.48
2023-04-19T03:01:22.023Z,6.44
2023-04-19T03:03:49.221Z,6.11
2023-04-19T03:06:16.937Z,5.82
2023-04-19T03:08:44.095Z,5.62
2023-04-19T03:11:12.871Z,6.03
2023-04-19T03:13:40.722Z,6.20
2023-04-19T03:16:09.158Z,6.61
2023-04-19T03:18:36.489Z,6.32
2023-04-19T03:21:09.384Z,6.26
2023-04-19T03:23:37.628Z,6.18
2023-04-19T03:26:04.713Z,6.35
2023-04-19T03:28:31.796Z,6.28
2023-04-19T03:30:58.793Z,6.05
2023-04-19T03:33:25.909Z,5.90
2023-04-19T03:35:52.939Z,6.23
2023-04-19T03:38:20.032Z,5.86
2023-04-19T03:40:48.250Z,6.08
2023-04-19T03:43:15.422Z,6.17
2023-04-19T03:45:42.514Z,6.12
2023-04-19T03:48:09.641Z,6.11
2023-04-19T03:50:36.730Z,5.68
2023-04-19T03:53:07.328Z,5.64
2023-04-19T03:55:34.421Z,5.66
2023-04-19T03:58:01.658Z,5.73
2023-04-19T04:00:28.725Z,5.91
2023-04-19T04:02:57.594Z,5.58
2023-04-19T04:05:28.005Z,5.52
2023-04-19T04:07:56.312Z,6.04
2023-04-19T04:10:23.371Z,5.66
2023-04-19T04:12:50.472Z,6.19
2023-04-19T04:15:17.690Z,5.72
2023-04-19T04:17:45.106Z,5.89
2023-04-19T04:20:13.513Z,5.80
2023-04-19T04:22:43.283Z,5.82
2023-04-19T04:25:10.968Z,5.76
2023-04-19T04:27:39.793Z,5.93
2023-04-19T04:30:08.046Z,5.82
2023-04-19T04:32:37.434Z,6.10
2023-04-19T04:35:07.166Z,5.72
2023-04-19T04:37:40.431Z,5.73
2023-04-19T04:40:08.952Z,6.20
2023-04-19T04:42:39.086Z,5.51
2023-04-19T04:45:07.295Z,5.97
2023-04-19T04:47:35.325Z,5.69
2023-04-19T04:50:04.194Z,5.89
2023-04-19T04:52:31.360Z,6.07
2023-04-19T04:54:58.663Z,6.17
2023-04-19T04:57:28.735Z,6.86
2023-04-19T04:59:56.397Z,6.34
2023-04-19T05:02:24.010Z,6.14
2023-04-19T05:04:51.286Z,6.69
2023-04-19T05:07:18.414Z,7.03
2023-04-19T05:09:49.044Z,6.64
2023-04-19T05:12:16.190Z,7.04
2023-04-19T05:14:43.282Z,6.75
2023-04-19T05:17:10.508Z,6.26
2023-04-19T05:19:40.902Z,6.35
2023-04-19T05:22:07.946Z,6.80
2023-04-19T05:24:35.292Z,6.59
2023-04-19T05:27:05.047Z,6.74
2023-04-19T05:29:32.516Z,6.59
2023-04-19T05:31:59.727Z,6.56
2023-04-19T05:34:26.933Z,7.42
2023-04-19T05:36:54.167Z,7.29
2023-04-19T05:39:21.202Z,7.31
2023-04-19T05:41:48.633Z,7.34
2023-04-19T05:44:15.920Z,6.90
2023-04-19T05:46:43.150Z,7.43
2023-04-19T05:49:10.171Z,7.94
2023-04-19T05:51:37.248Z,7.34
2023-04-19T05:54:04.426Z,7.70
2023-04-19T05:56:31.764Z,7.57
2023-04-19T05:59:00.963Z,8.27
2023-04-19T06:01:28.402Z,7.64
2023-04-19T06:03:55.645Z,7.68
2023-04-19T06:06:23.843Z,8.94
2023-04-19T06:08:53.328Z,7.99
2023-04-19T06:11:31.511Z,7.59
2023-04-19T06:14:02.167Z,8.65
2023-04-19T06:16:29.834Z,8.03
2023-04-19T06:18:57.407Z,8.92
2023-04-19T06:21:24.532Z,8.83
2023-04-19T06:23:52.165Z,8.22
2023-04-19T06:26:19.395Z,8.93
2023-04-19T06:28:49.349Z,8.78
2023-04-19T06:31:16.528Z,9.49
2023-04-19T06:33:43.876Z,9.91
2023-04-19T06:36:10.944Z,8.78
2023-04-19T06:38:47.464Z,9.38
2023-04-19T06:41:14.487Z,8.15
2023-04-19T06:43:42.776Z,9.59
2023-04-19T06:46:10.110Z,10.31
2023-04-19T06:48:38.023Z,10.30
2023-04-19T06:51:05.299Z,9.59
2023-04-19T06:53:33.244Z,9.79
2023-04-19T06:56:04.428Z,9.58
2023-04-19T06:58:34.513Z,10.72
2023-04-19T07:01:04.542Z,10.82
2023-04-19T07:03:33.782Z,10.52
2023-04-19T07:06:01.353Z,10.00
2023-04-19T07:08:42.310Z,10.81
2023-04-19T07:11:15.672Z,10.67
2023-04-19T07:13:46.622Z,10.36
2023-04-19T07:16:14.932Z,10.14
2023-04-19T07:18:42.325Z,10.29
2023-04-19T07:21:10.307Z,11.10
2023-04-19T07:24:06.222Z,10.44
2023-04-19T07:26:45.114Z,10.35
2023-04-19T07:29:15.233Z,10.44
2023-04-19T07:31:42.533Z,11.31
2023-04-19T07:34:09.961Z,10.46
2023-04-19T07:36:38.014Z,10.72
2023-04-19T07:39:05.364Z,11.70
2023-04-19T07:41:33.082Z,11.86
2023-04-19T07:44:02.870Z,12.08
2023-04-19T07:46:30.125Z,11.87
2023-04-19T07:48:57.248Z,11.88
2023-04-19T07:51:25.114Z,11.16
2023-04-19T07:53:55.402Z,11.98
2023-04-19T07:56:23.343Z,12.28
2023-04-19T07:59:04.218Z,11.25
2023-04-19T08:01:35.250Z,11.50
2023-04-19T08:04:06.977Z,11.51
2023-04-19T08:06:34.535Z,11.76
2023-04-19T08:09:01.603Z,11.19
2023-04-19T08:11:28.794Z,11.24
2023-04-19T08:14:06.805Z,11.57
2023-04-19T08:17:19.576Z,11.93
2023-04-19T08:19:31.044Z,11.59
2023-04-19T08:21:58.099Z,11.38
2023-04-19T08:24:25.292Z,12.00
2023-04-19T08:26:57.088Z,11.83
2023-04-19T08:29:28.711Z,11.42
2023-04-19T08:31:57.285Z,11.36
2023-04-19T08:34:24.370Z,11.89
2023-04-19T08:37:03.238Z,11.70
2023-04-19T08:39:37.720Z,12.26
2023-04-19T08:42:21.138Z,12.54
2023-04-19T08:47:44.974Z,12.13
2023-04-19T08:50:31.078Z,12.01
2023-04-19T08:55:33.624Z,12.91
2023-04-19T08:58:09.662Z,13.52
2023-04-19T09:00:43.041Z,13.01
2023-04-19T09:03:11.300Z,13.15
2023-04-19T09:05:38.885Z,12.74
2023-04-19T09:08:28.650Z,13.47
2023-04-19T09:11:02.652Z,13.27
2023-04-19T09:13:30.364Z,13.46
2023-04-19T09:16:00.216Z,13.68
2023-04-19T09:18:33.130Z,12.89
2023-04-19T09:21:01.637Z,13.14
2023-04-19T09:23:29.219Z,13.61
2023-04-19T09:28:36.427Z,13.51
2023-04-19T09:31:33.210Z,12.67
2023-04-19T09:34:19.284Z,13.44
2023-04-19T09:36:54.637Z,13.05
2023-04-19T09:39:37.859Z,12.50
2023-04-19T09:42:05.122Z,12.97
2023-04-19T09:45:12.609Z,13.72
2023-04-19T09:47:29.845Z,13.50
2023-04-19T09:50:22.630Z,13.09
2023-04-19T09:52:53.039Z,14.23
2023-04-19T09:55:27.593Z,13.93
2023-04-19T09:57:55.739Z,13.94
2023-04-19T10:00:23.617Z,14.08
2023-04-19T10:02:58.000Z,14.20
2023-04-19T10:05:26.410Z,14.17
2023-04-19T10:07:59.529Z,13.61
2023-04-19T10:13:25.975Z,14.11
2023-04-19T10:16:01.814Z,14.12
2023-04-19T10:18:35.940Z,14.18
2023-04-19T10:21:08.328Z,14.11
2023-04-19T10:23:38.711Z,14.63
2023-04-19T10:26:07.262Z,14.02
2023-04-19T10:28:37.193Z,13.96
2023-04-19T10:31:05.768Z,14.26
2023-04-19T10:33:37.866Z,13.92
2023-04-19T10:36:11.164Z,15.19
2023-04-19T10:38:49.457Z,14.58
2023-04-19T10:41:23.737Z,14.07
2023-04-19T10:43:57.656Z,14.98
2023-04-19T10:46:25.866Z,14.77
2023-04-19T10:49:09.545Z,14.76
2023-04-19T10:51:42.368Z,14.90
2023-04-19T10:54:33.180Z,14.50
2023-04-19T10:57:10.182Z,14.67
2023-04-19T10:59:42.975Z,14.81
2023-04-19T11:02:22.448Z,14.61
2023-04-19T11:04:49.626Z,14.17
2023-04-19T11:07:24.002Z,14.27
2023-04-19T11:09:52.467Z,14.18
2023-04-19T11:12:24.065Z,15.25
2023-04-19T11:14:59.678Z,14.37
2023-04-19T11:17:32.504Z,14.95
2023-04-19T11:20:12.008Z,14.56
2023-04-19T11:22:47.214Z,14.88
2023-04-19T11:25:22.760Z,14.49
2023-04-19T11:27:54.001Z,14.93
2023-04-19T11:30:31.236Z,14.47
2023-04-19T11:32:58.818Z,14.44
2023-04-19T11:35:29.042Z,14.17
2023-04-19T11:38:08.004Z,14.57
2023-04-19T11:40:37.391Z,14.25
2023-04-19T11:43:05.525Z,14.16
2023-04-19T11:45:39.804Z,14.09
2023-04-19T11:48:17.242Z,14.69
2023-04-19T11:50:49.408Z,14.10
2023-04-19T11:53:25.447Z,14.24
2023-04-19T11:56:08.240Z,14.99
2023-04-19T11:58:50.114Z,14.43
2023-04-19T12:01:20.705Z,14.18
2023-04-19T12:03:51.275Z,14.10
2023-04-19T12:06:30.706Z,14.16
2023-04-19T12:09:47.949Z,14.58
2023-04-19T12:12:31.305Z,13.98
2023-04-19T12:14:58.578Z,14.25
2023-04-19T12:17:35.360Z,14.40
2023-04-19T12:20:08.436Z,14.11
2023-04-19T12:22:36.154Z,14.21
2023-04-19T12:25:03.267Z,14.21
2023-04-19T12:27:30.414Z,14.47
2023-04-19T12:29:57.828Z,14.35
2023-04-19T12:32:25.024Z,14.34
2023-04-19T12:35:04.386Z,13.86
2023-04-19T12:37:31.691Z,14.47
2023-04-19T12:39:58.819Z,14.53
2023-04-19T12:42:28.272Z,14.62
2023-04-19T12:47:43.535Z,14.92
2023-04-19T12:50:16.166Z,15.51
2023-04-19T12:52:58.838Z,14.95
2023-04-19T12:55:35.378Z,15.67
2023-04-19T12:58:15.038Z,15.50
2023-04-19T13:00:43.547Z,15.87
2023-04-19T13:03:14.033Z,15.20
2023-04-19T13:05:41.655Z,15.02
2023-04-19T13:08:08.840Z,14.69
2023-04-19T13:10:36.178Z,15.54
2023-04-19T13:13:05.676Z,15.01
2023-04-19T13:15:32.788Z,14.57
2023-04-19T13:17:59.922Z,14.40
2023-04-19T13:20:27.136Z,14.52
2023-04-19T13:22:54.194Z,15.53
2023-04-19T13:25:27.731Z,14.64
2023-04-19T13:27:54.938Z,14.46
2023-04-19T13:30:22.010Z,14.12
2023-04-19T13:32:49.082Z,14.37
2023-04-19T13:35:16.681Z,14.41
2023-04-19T13:37:47.565Z,13.90
2023-04-19T13:40:22.040Z,14.15
2023-04-19T13:42:49.177Z,13.77
2023-04-19T13:45:16.276Z,13.63
2023-04-19T13:47:43.863Z,13.55
2023-04-19T13:50:11.186Z,13.42
2023-04-19T13:52:38.272Z,13.80
2023-04-19T13:55:05.809Z,13.90
2023-04-19T13:57:32.859Z,13.85
2023-04-19T13:59:59.937Z,14.39
2023-04-19T14:02:28.616Z,14.48
2023-04-19T14:04:58.805Z,14.40
2023-04-19T14:07:25.881Z,13.97
2023-04-19T14:09:53.008Z,14.56
2023-04-19T14:12:20.558Z,14.45
2023-04-19T14:14:47.991Z,13.85
2023-04-19T14:17:15.041Z,14.18
2023-04-19T14:19:42.235Z,13.86
2023-04-19T14:22:09.505Z,13.12
2023-04-19T14:24:36.567Z,13.01
2023-04-19T14:27:10.812Z,13.21
2023-04-19T14:29:39.778Z,12.87
2023-04-19T14:32:23.627Z,13.29
2023-04-19T14:34:53.924Z,13.18
2023-04-19T14:37:24.183Z,12.61
2023-04-19T14:39:51.733Z,12.90
2023-04-19T14:42:22.316Z,12.78
2023-04-19T14:44:54.047Z,12.78
2023-04-19T14:47:21.907Z,12.40
2023-04-19T14:49:49.077Z,11.98
2023-04-19T14:52:19.599Z,11.67
2023-04-19T14:54:46.858Z,11.40
2023-04-19T14:57:14.824Z,10.48
2023-04-19T14:59:44.548Z,11.47
2023-04-19T15:02:13.622Z,11.00
2023-04-19T15:04:42.005Z,10.56
2023-04-19T15:07:09.474Z,9.74
2023-04-19T15:09:36.634Z,9.08
2023-04-19T15:12:03.900Z,9.09
2023-04-19T15:14:30.937Z,9.38
2023-04-19T15:16:58.024Z,9.01
2023-04-19T15:19:25.188Z,9.53
2023-04-19T15:21:52.230Z,9.04
2023-04-19T15:24:19.332Z,9.87
2023-04-19T15:26:46.445Z,9.01
2023-04-19T15:29:16.654Z,8.92
2023-04-19T15:31:44.002Z,8.86
2023-04-19T15:34:11.122Z,9.35
2023-04-19T15:36:38.571Z,9.05
2023-04-19T15:39:05.918Z,8.48
2023-04-19T15:41:33.028Z,9.00
2023-04-19T15:44:00.077Z,8.63
2023-04-19T15:46:27.385Z,8.63
2023-04-19T15:48:54.702Z,9.44
2023-04-19T15:51:21.872Z,10.00
2023-04-19T15:53:49.014Z,9.22
2023-04-19T15:56:16.261Z,9.63
2023-04-19T15:58:43.401Z,9.34
2023-04-19T16:01:14.284Z,9.16
2023-04-19T16:03:42.654Z,9.28
2023-04-19T16:06:10.493Z,9.58
2023-04-19T16:08:37.645Z,9.81
2023-04-19T16:11:06.027Z,9.71
2023-04-19T16:13:35.703Z,9.28
2023-04-19T16:16:02.871Z,9.69
2023-04-19T16:18:30.109Z,9.74
2023-04-19T16:20:57.303Z,9.78
2023-04-19T16:23:25.484Z,9.74
2023-04-19T16:25:53.789Z,10.17
2023-04-19T16:28:24.930Z,9.36
2023-04-19T16:30:52.191Z,9.16
2023-04-19T16:33:19.457Z,9.17
2023-04-19T16:35:46.670Z,9.92
2023-04-19T16:38:14.156Z,8.70
2023-04-19T16:40:41.478Z,9.27
2023-04-19T16:43:08.607Z,8.58
2023-04-19T16:45:35.813Z,8.72
2023-04-19T16:48:03.096Z,9.16
2023-04-19T16:50:30.314Z,8.63
2023-04-19T16:52:57.409Z,9.28
2023-04-19T16:55:24.445Z,9.01
2023-04-19T16:57:53.581Z,8.43
2023-04-19T17:00:21.264Z,9.22
2023-04-19T17:02:54.828Z,8.37
2023-04-19T17:05:22.085Z,8.66
2023-04-19T17:07:51.731Z,8.35
2023-04-19T17:10:18.957Z,9.04
2023-04-19T17:12:46.104Z,8.57
2023-04-19T17:15:13.211Z,8.61
2023-04-19T17:17:40.986Z,8.14
2023-04-19T17:20:09.417Z,8.22
2023-04-19T17:22:36.576Z,8.38
2023-04-19T17:25:03.896Z,7.70
2023-04-19T17:27:31.618Z,7.84
2023-04-19T17:29:58.706Z,7.60
2023-04-19T17:32:27.018Z,7.77
2023-04-19T17:34:54.255Z,7.81
2023-04-19T17:37:21.771Z,7.72
2023-04-19T17:39:49.097Z,7.83
2023-04-19T17:42:16.182Z,7.60
2023-04-19T17:44:43.318Z,7.98
2023-04-19T17:47:13.004Z,7.75
2023-04-19T17:49:40.712Z,7.73
2023-04-19T17:52:09.860Z,8.02
2023-04-19T17:54:37.214Z,7.89
2023-04-19T17:57:05.558Z,8.12
2023-04-19T17:59:35.556Z,7.96
2023-04-19T18:02:02.815Z,8.14
2023-04-19T18:04:31.017Z,7.88
2023-04-19T18:07:02.126Z,7.90
2023-04-19T18:09:31.030Z,8.15
2023-04-19T18:11:58.398Z,8.12
2023-04-19T18:14:25.614Z,8.52
2023-04-19T18:16:54.728Z,7.97
2023-04-19T18:19:23.955Z,7.97
2023-04-19T18:25:01.627Z,8.12
2023-04-19T18:27:30.977Z,8.22
2023-04-19T18:29:59.416Z,8.18
2023-04-19T18:32:28.646Z,7.93
2023-04-19T18:34:56.122Z,7.86
2023-04-19T18:37:23.208Z,8.32
2023-04-19T18:39:50.401Z,8.17
2023-04-19T18:42:20.672Z,8.08
2023-04-19T18:47:17.748Z,7.92
2023-04-19T18:49:52.892Z,8.00
2023-04-19T18:52:30.259Z,8.08
2023-04-19T18:54:58.385Z,8.15
2023-04-19T18:57:27.503Z,8.30
2023-04-19T18:59:56.883Z,8.08
2023-04-19T19:02:24.541Z,8.03
2023-04-19T19:04:57.761Z,8.03
2023-04-19T19:07:35.724Z,7.69
2023-04-19T19:10:18.329Z,8.06
2023-04-19T19:12:48.134Z,8.11
2023-04-19T19:15:15.610Z,7.98
2023-04-19T19:17:43.597Z,8.02
2023-04-19T19:20:13.654Z,7.99
2023-04-19T19:22:40.812Z,8.23
2023-04-19T19:25:08.515Z,8.00
2023-04-19T19:27:35.729Z,8.38
2023-04-19T19:30:03.606Z,8.64
2023-04-19T19:32:31.593Z,8.34
2023-04-19T19:35:02.234Z,8.28
2023-04-19T19:37:30.385Z,8.15
2023-04-19T19:39:57.483Z,8.08
2023-04-19T19:42:25.574Z,8.14
2023-04-19T19:44:56.422Z,8.24
2023-04-19T19:47:27.288Z,7.98
2023-04-19T19:50:45.701Z,8.34
2023-04-19T19:52:42.271Z,8.30
2023-04-19T19:55:12.379Z,8.04
2023-04-19T20:00:36.837Z,8.16
2023-04-19T20:03:01.616Z,8.52
2023-04-19T20:05:29.515Z,7.78
2023-04-19T20:08:29.174Z,7.60
2023-04-19T20:10:56.625Z,8.02
2023-04-19T20:13:23.851Z,8.18
2023-04-19T20:15:52.679Z,7.76
2023-04-19T20:18:19.828Z,7.91
2023-04-19T20:20:46.943Z,8.03
2023-04-19T20:23:23.741Z,8.06
2023-04-19T20:25:51.955Z,7.94
2023-04-19T20:28:19.254Z,7.99
2023-04-19T20:30:46.675Z,8.03
2023-04-19T20:33:13.978Z,7.94
2023-04-19T20:35:42.048Z,8.05
2023-04-19T20:38:09.656Z,8.18
2023-04-19T20:40:37.085Z,8.23
2023-04-19T20:43:04.127Z,8.28
2023-04-19T20:45:31.344Z,7.95
2023-04-19T20:47:59.610Z,8.02
2023-04-19T20:50:32.239Z,8.00
2023-04-19T20:53:08.144Z,7.99
2023-04-19T20:55:35.658Z,8.04
2023-04-19T20:58:06.397Z,8.09
2023-04-19T21:00:33.485Z,8.04
2023-04-19T21:03:00.678Z,8.24
2023-04-19T21:05:27.912Z,8.06
2023-04-19T21:07:55.206Z,7.93
2023-04-19T21:10:22.417Z,8.23
2023-04-19T21:12:49.711Z,8.05
2023-04-19T21:15:17.096Z,8.06
2023-04-19T21:17:44.362Z,8.36
2023-04-19T21:20:13.933Z,8.23
2023-04-19T21:22:46.833Z,8.32
2023-04-19T21:25:14.403Z,7.87
2023-04-19T21:27:45.033Z,7.98
2023-04-19T21:30:13.722Z,8.05
2023-04-19T21:32:40.872Z,7.71
2023-04-19T21:35:11.554Z,7.96
2023-04-19T21:37:38.759Z,7.94
2023-04-19T21:40:07.462Z,8.22
2023-04-19T21:42:37.489Z,8.01
2023-04-19T21:45:05.766Z,8.03
2023-04-19T21:47:32.916Z,7.77
2023-04-19T21:50:00.188Z,7.93
2023-04-19T21:52:27.337Z,8.11
2023-04-19T21:54:57.574Z,8.15
2023-04-19T21:57:26.896Z,7.69
2023-04-19T21:59:54.357Z,7.82
2023-04-19T22:02:27.465Z,8.18
2023-04-19T22:04:54.627Z,7.68
2023-04-19T22:07:23.810Z,8.08
2023-04-19T22:09:51.153Z,7.97
2023-04-19T22:12:18.787Z,8.23
2023-04-19T22:14:46.043Z,8.05
2023-04-19T22:17:14.215Z,8.05
2023-04-19T22:19:41.261Z,8.02
2023-04-19T22:22:08.439Z,7.98
2023-04-19T22:24:46.744Z,7.96
2023-04-19T22:27:24.324Z,8.19
2023-04-19T22:29:51.435Z,7.74
2023-04-19T22:32:18.765Z,8.48
2023-04-19T22:34:45.853Z,7.97
2023-04-19T22:37:12.904Z,7.75
2023-04-19T22:39:42.655Z,8.30
2023-04-19T22:42:09.732Z,8.22
2023-04-19T22:44:36.751Z,8.04
2023-04-19T22:47:04.874Z,8.05
2023-04-19T22:49:32.939Z,7.99
2023-04-19T22:52:00.185Z,8.37
2023-04-19T22:54:27.402Z,7.78
2023-04-19T22:56:54.527Z,8.26
2023-04-19T22:59:21.636Z,8.00
2023-04-19T23:01:48.719Z,8.08
2023-04-19T23:04:16.311Z,7.90
2023-04-19T23:06:44.437Z,7.95
2023-04-19T23:09:13.750Z,8.27
2023-04-19T23:11:42.275Z,8.02
2023-04-19T23:14:10.414Z,7.87
2023-04-19T23:16:41.336Z,8.56
2023-04-19T23:19:09.570Z,8.22
2023-04-19T23:21:37.249Z,7.81
2023-04-19T23:24:07.270Z,7.99
2023-04-19T23:26:34.407Z,8.13
2023-04-19T23:29:01.472Z,7.95
2023-04-19T23:31:28.642Z,7.79
2023-04-19T23:33:58.076Z,7.98
2023-04-19T23:36:26.433Z,7.90
2023-04-19T23:38:53.458Z,7.99
2023-04-19T23:41:20.771Z,8.16
2023-04-19T23:43:47.849Z,8.06
2023-04-19T23:46:14.927Z,7.95
2023-04-19T23:48:42.014Z,8.16
2023-04-19T23:51:09.066Z,8.05
2023-04-19T23:53:36.355Z,7.96
2023-04-19T23:56:03.498Z,7.77
2023-04-19T23:58:30.827Z,8.16
